createdAt,value
2017-10-25T00:01:36.564Z,3.27
2017-10-25T00:04:03.414Z,3.10
2017-10-25T00:06:30.127Z,3.37
2017-10-25T00:08:56.828Z,3.57
2017-10-25T00:11:23.596Z,2.73
2017-10-25T00:13:50.305Z,3.13
2017-10-25T00:16:17.010Z,3.70
2017-10-25T00:18:43.725Z,3.80
2017-10-25T00:21:10.518Z,3.87
2017-10-25T00:23:37.224Z,3.33
2017-10-25T00:26:03.953Z,3.47
2017-10-25T00:28:30.659Z,3.50
2017-10-25T00:30:57.369Z,3.90
2017-10-25T00:33:24.112Z,3.57
2017-10-25T00:35:50.825Z,4.60
2017-10-25T00:38:17.530Z,3.70
2017-10-25T00:40:44.260Z,4.20
2017-10-25T00:43:10.964Z,3.63
2017-10-25T00:45:37.688Z,3.80
2017-10-25T00:48:04.504Z,4.30
2017-10-25T00:50:31.209Z,4.20
2017-10-25T00:52:57.902Z,3.73
2017-10-25T00:55:24.646Z,3.73
2017-10-25T00:57:51.399Z,5.00
2017-10-25T01:00:18.149Z,5.73
2017-10-25T01:02:44.901Z,5.50
2017-10-25T01:05:11.611Z,5.30
2017-10-25T01:07:38.309Z,4.90
2017-10-25T01:10:05.040Z,4.50
2017-10-25T01:12:31.748Z,5.40
2017-10-25T01:14:58.449Z,4.40
2017-10-25T01:17:25.187Z,4.43
2017-10-25T01:19:51.913Z,4.87
2017-10-25T01:22:31.811Z,5.57
2017-10-25T01:24:58.542Z,4.30
2017-10-25T01:27:25.290Z,4.80
2017-10-25T01:29:52.066Z,4.70
2017-10-25T01:32:18.777Z,3.63
2017-10-25T01:34:45.502Z,4.10
2017-10-25T01:37:12.256Z,5.30
2017-10-25T01:39:38.991Z,4.17
2017-10-25T01:42:05.750Z,4.07
2017-10-25T01:44:32.526Z,4.80
2017-10-25T01:46:59.223Z,4.17
2017-10-25T01:49:25.950Z,4.00
2017-10-25T01:51:52.707Z,4.10
2017-10-25T01:54:19.455Z,3.80
2017-10-25T01:56:46.185Z,3.87
2017-10-25T01:59:12.952Z,4.27
2017-10-25T02:01:39.665Z,4.20
2017-10-25T02:04:06.378Z,3.70
2017-10-25T02:06:33.166Z,4.30
2017-10-25T02:08:59.881Z,3.87
2017-10-25T02:11:26.602Z,4.00
2017-10-25T02:13:53.385Z,3.93
2017-10-25T02:16:20.115Z,4.10
2017-10-25T02:18:46.842Z,4.60
2017-10-25T02:21:13.593Z,4.30
2017-10-25T02:23:40.310Z,4.20
2017-10-25T02:26:07.044Z,4.50
2017-10-25T02:28:33.768Z,4.17
2017-10-25T02:31:00.502Z,3.97
2017-10-25T02:33:27.219Z,4.30
2017-10-25T02:35:53.933Z,4.20
2017-10-25T02:38:20.640Z,3.43
2017-10-25T02:40:47.359Z,3.70
2017-10-25T02:43:14.082Z,3.73
2017-10-25T02:45:40.791Z,3.40
2017-10-25T02:48:07.532Z,3.17
2017-10-25T02:50:34.268Z,3.70
2017-10-25T02:53:00.978Z,3.07
2017-10-25T02:55:27.684Z,4.00
2017-10-25T02:57:54.467Z,3.03
2017-10-25T03:00:21.203Z,3.50
2017-10-25T03:02:47.902Z,3.00
2017-10-25T03:05:14.632Z,3.97
2017-10-25T03:07:41.329Z,4.70
2017-10-25T03:10:08.034Z,4.20
2017-10-25T03:12:34.791Z,4.10
2017-10-25T03:15:01.487Z,3.37
2017-10-25T03:17:28.203Z,3.50
2017-10-25T03:19:54.949Z,3.87
2017-10-25T03:22:21.644Z,3.40
2017-10-25T03:24:48.355Z,3.97
2017-10-25T03:27:15.093Z,4.40
2017-10-25T03:29:41.814Z,3.70
2017-10-25T03:32:08.548Z,3.13
2017-10-25T03:34:35.263Z,3.60
2017-10-25T03:37:01.963Z,4.37
2017-10-25T03:39:28.678Z,3.40
2017-10-25T03:41:55.413Z,3.77
2017-10-25T03:44:22.134Z,3.40
2017-10-25T03:46:48.843Z,4.13
2017-10-25T03:49:15.563Z,3.20
2017-10-25T03:51:42.272Z,3.17
2017-10-25T03:54:08.983Z,3.03
2017-10-25T03:56:35.721Z,3.20
2017-10-25T03:59:02.443Z,4.13
2017-10-25T04:01:29.147Z,3.70
2017-10-25T04:03:55.871Z,3.47
2017-10-25T04:06:22.613Z,3.37
2017-10-25T04:08:49.311Z,3.77
2017-10-25T04:11:16.022Z,3.33
2017-10-25T04:13:42.730Z,3.63
2017-10-25T04:16:09.432Z,3.27
2017-10-25T04:18:36.165Z,3.40
2017-10-25T04:21:02.878Z,3.10
2017-10-25T04:23:29.600Z,2.93
2017-10-25T04:25:56.311Z,2.90
2017-10-25T04:28:23.022Z,3.37
2017-10-25T04:30:49.841Z,3.10
2017-10-25T04:33:16.785Z,3.20
2017-10-25T04:35:43.482Z,3.23
2017-10-25T04:38:10.270Z,3.50
2017-10-25T04:40:37.106Z,2.97
2017-10-25T04:43:03.836Z,3.30
2017-10-25T04:45:30.557Z,3.40
2017-10-25T04:47:57.308Z,3.90
2017-10-25T04:50:24.016Z,3.30
2017-10-25T04:52:50.720Z,2.53
2017-10-25T04:55:17.438Z,3.60
2017-10-25T04:57:44.153Z,3.27
2017-10-25T05:00:10.857Z,3.60
2017-10-25T05:02:37.599Z,3.63
2017-10-25T05:05:04.302Z,3.10
2017-10-25T05:07:31.019Z,3.20
2017-10-25T05:09:57.774Z,2.70
2017-10-25T05:12:24.480Z,3.33
2017-10-25T05:14:51.181Z,3.10
2017-10-25T05:17:17.910Z,3.87
2017-10-25T05:19:44.627Z,3.10
2017-10-25T05:22:11.338Z,3.33
2017-10-25T05:24:38.058Z,3.03
2017-10-25T05:27:04.762Z,3.90
2017-10-25T05:29:31.477Z,4.50
2017-10-25T05:31:58.253Z,4.23
2017-10-25T05:34:24.963Z,3.70
2017-10-25T05:36:51.708Z,3.00
2017-10-25T05:39:18.470Z,3.70
2017-10-25T05:41:45.187Z,3.90
2017-10-25T05:44:11.894Z,4.10
2017-10-25T05:46:38.620Z,4.43
2017-10-25T05:49:05.326Z,3.70
2017-10-25T05:51:32.080Z,4.13
2017-10-25T05:53:58.863Z,3.50
2017-10-25T05:56:25.659Z,3.63
2017-10-25T05:58:52.362Z,3.43
2017-10-25T06:01:19.085Z,3.50
2017-10-25T06:03:45.783Z,4.40
2017-10-25T06:06:12.483Z,5.97
2017-10-25T06:08:39.260Z,4.13
2017-10-25T06:11:06.006Z,3.60
2017-10-25T06:13:32.716Z,3.80
2017-10-25T06:15:59.448Z,3.73
2017-10-25T06:18:26.146Z,3.60
2017-10-25T06:20:52.937Z,3.87
2017-10-25T06:23:19.744Z,3.70
2017-10-25T06:25:46.578Z,4.70
2017-10-25T06:28:13.262Z,4.57
2017-10-25T06:30:40.006Z,5.30
2017-10-25T06:33:06.716Z,4.50
2017-10-25T06:35:33.493Z,4.93
2017-10-25T06:38:00.301Z,4.90
2017-10-25T06:40:27.090Z,5.60
2017-10-25T06:42:53.829Z,4.50
2017-10-25T06:45:20.669Z,4.90
2017-10-25T06:47:47.394Z,5.17
2017-10-25T06:50:14.166Z,5.53
2017-10-25T06:52:40.890Z,5.50
2017-10-25T06:55:07.619Z,5.07
2017-10-25T06:57:34.387Z,5.63
2017-10-25T07:00:01.204Z,5.20
2017-10-25T07:02:27.904Z,5.07
2017-10-25T07:04:54.682Z,5.10
2017-10-25T07:07:21.408Z,5.40
2017-10-25T07:09:48.096Z,5.33
2017-10-25T07:12:14.800Z,5.30
2017-10-25T07:14:41.551Z,5.47
2017-10-25T07:17:08.266Z,5.50
2017-10-25T07:19:34.984Z,5.20
2017-10-25T07:22:01.773Z,5.20
2017-10-25T07:24:28.545Z,5.20
2017-10-25T07:26:55.237Z,6.77
2017-10-25T07:29:21.945Z,5.77
2017-10-25T07:31:48.740Z,5.80
2017-10-25T07:34:15.460Z,6.47
2017-10-25T07:36:42.182Z,7.00
2017-10-25T07:39:08.940Z,7.63
2017-10-25T07:41:35.678Z,7.03
2017-10-25T07:44:02.485Z,7.10
2017-10-25T07:46:29.195Z,5.87
2017-10-25T07:48:55.901Z,6.90
2017-10-25T07:51:22.640Z,6.40
2017-10-25T07:53:49.373Z,7.50
2017-10-25T07:56:16.082Z,6.70
2017-10-25T07:58:42.819Z,6.90
2017-10-25T08:01:09.548Z,6.23
2017-10-25T08:03:36.243Z,6.33
2017-10-25T08:06:02.979Z,7.20
2017-10-25T08:08:29.681Z,6.30
2017-10-25T08:10:56.410Z,6.53
2017-10-25T08:13:23.127Z,6.10
2017-10-25T08:15:49.835Z,6.73
2017-10-25T08:18:16.534Z,6.40
2017-10-25T08:20:43.282Z,6.97
2017-10-25T08:23:10.009Z,6.33
2017-10-25T08:25:36.747Z,7.67
2017-10-25T08:28:03.500Z,5.03
2017-10-25T08:30:30.191Z,5.37
2017-10-25T08:32:56.896Z,5.30
2017-10-25T08:35:23.618Z,5.23
2017-10-25T08:37:50.416Z,4.80
2017-10-25T08:40:17.042Z,4.63
2017-10-25T08:42:43.787Z,4.93
2017-10-25T08:45:10.494Z,5.63
2017-10-25T08:47:37.201Z,6.13
2017-10-25T08:50:03.914Z,5.37
2017-10-25T08:52:30.643Z,5.43
2017-10-25T08:54:57.345Z,5.53
2017-10-25T08:57:24.070Z,5.17
2017-10-25T08:59:50.833Z,5.77
2017-10-25T09:02:17.549Z,5.67
2017-10-25T09:04:44.286Z,6.37
2017-10-25T09:07:11.062Z,5.30
2017-10-25T09:09:37.815Z,5.20
2017-10-25T09:12:04.566Z,5.47
2017-10-25T09:14:31.367Z,4.97
2017-10-25T09:16:58.091Z,5.10
2017-10-25T09:19:24.824Z,5.30
2017-10-25T09:21:51.562Z,5.07
2017-10-25T09:24:18.270Z,4.93
2017-10-25T09:26:45.330Z,5.60
2017-10-25T09:29:12.365Z,5.40
2017-10-25T09:31:39.142Z,4.40
2017-10-25T09:34:05.888Z,5.20
2017-10-25T09:36:32.582Z,5.07
2017-10-25T09:38:59.287Z,5.93
2017-10-25T09:41:26.015Z,6.10
2017-10-25T09:43:52.715Z,6.47
2017-10-25T09:46:19.405Z,6.33
2017-10-25T09:48:46.126Z,5.87
2017-10-25T09:51:12.822Z,6.73
2017-10-25T09:53:39.519Z,6.97
2017-10-25T09:56:06.244Z,6.17
2017-10-25T09:58:32.950Z,6.73
2017-10-25T10:00:59.652Z,6.93
2017-10-25T10:03:26.360Z,5.83
2017-10-25T10:05:53.050Z,6.77
2017-10-25T10:08:19.763Z,6.10
2017-10-25T10:10:46.482Z,5.70
2017-10-25T10:13:13.193Z,5.90
2017-10-25T10:15:39.913Z,5.97
2017-10-25T10:18:06.673Z,5.30
2017-10-25T10:20:33.380Z,5.60
2017-10-25T10:23:00.087Z,5.80
2017-10-25T10:25:26.814Z,4.97
2017-10-25T10:27:53.510Z,5.50
2017-10-25T10:30:20.234Z,5.00
2017-10-25T10:32:46.943Z,5.07
2017-10-25T10:35:13.637Z,5.33
2017-10-25T10:37:40.345Z,4.47
2017-10-25T10:40:07.137Z,4.60
2017-10-25T10:42:33.837Z,4.57
2017-10-25T10:45:00.533Z,4.10
2017-10-25T10:47:27.276Z,2.80
2017-10-25T10:49:53.979Z,5.00
2017-10-25T10:52:20.683Z,4.10
2017-10-25T10:54:47.416Z,4.83
2017-10-25T10:57:14.108Z,4.03
2017-10-25T10:59:40.813Z,3.93
2017-10-25T11:02:07.593Z,3.93
2017-10-25T11:04:34.287Z,3.80
2017-10-25T11:07:00.985Z,3.30
2017-10-25T11:09:27.710Z,3.80
2017-10-25T11:11:54.441Z,3.47
2017-10-25T11:14:21.131Z,3.13
2017-10-25T11:16:47.879Z,3.50
2017-10-25T11:19:14.605Z,3.90
2017-10-25T11:21:41.314Z,3.37
2017-10-25T11:24:08.034Z,3.60
2017-10-25T11:26:34.733Z,3.43
2017-10-25T11:29:01.463Z,3.20
2017-10-25T11:31:28.197Z,3.83
2017-10-25T11:33:54.926Z,4.30
2017-10-25T11:36:21.695Z,3.60
2017-10-25T11:38:48.441Z,3.10
2017-10-25T11:41:15.161Z,3.70
2017-10-25T11:43:41.866Z,3.10
2017-10-25T11:46:08.601Z,3.00
2017-10-25T11:48:35.286Z,3.60
2017-10-25T11:51:01.986Z,3.33
2017-10-25T11:53:28.723Z,2.87
2017-10-25T11:55:56.439Z,2.90
2017-10-25T11:58:23.141Z,3.00
2017-10-25T12:00:49.885Z,2.37
2017-10-25T12:03:16.574Z,2.47
2017-10-25T12:05:43.301Z,3.03
2017-10-25T12:08:10.097Z,2.70
2017-10-25T12:10:36.782Z,2.47
2017-10-25T12:13:03.475Z,2.80
2017-10-25T12:15:30.194Z,2.77
2017-10-25T12:17:56.890Z,2.90
2017-10-25T12:20:23.595Z,2.90
2017-10-25T12:22:50.309Z,2.60
2017-10-25T12:25:17.029Z,2.20
2017-10-25T12:27:43.743Z,2.53
2017-10-25T12:30:10.492Z,2.60
2017-10-25T12:32:37.193Z,2.93
2017-10-25T12:35:03.902Z,2.60
2017-10-25T12:37:30.639Z,1.87
2017-10-25T12:39:57.369Z,2.07
2017-10-25T12:42:24.098Z,2.13
2017-10-25T12:44:50.823Z,1.83
2017-10-25T12:47:17.539Z,2.00
2017-10-25T12:49:44.250Z,2.00
2017-10-25T12:52:10.991Z,1.60
2017-10-25T12:54:38.770Z,1.80
2017-10-25T12:57:05.537Z,1.83
2017-10-25T12:59:32.287Z,2.37
2017-10-25T13:01:59.023Z,1.80
2017-10-25T13:04:25.731Z,1.63
2017-10-25T13:06:52.509Z,1.70
2017-10-25T13:09:19.202Z,1.60
2017-10-25T13:11:47.243Z,1.57
2017-10-25T13:14:16.473Z,1.70
2017-10-25T13:16:54.436Z,1.60
2017-10-25T13:19:21.161Z,1.87
2017-10-25T13:21:47.856Z,2.03
2017-10-25T13:24:14.580Z,2.10
2017-10-25T13:26:41.295Z,2.70
2017-10-25T13:29:08.000Z,2.37
2017-10-25T13:31:34.698Z,2.40
2017-10-25T13:34:01.417Z,3.00
2017-10-25T13:36:28.134Z,2.53
2017-10-25T13:38:54.854Z,2.97
2017-10-25T13:41:21.602Z,2.53
2017-10-25T13:43:48.293Z,2.67
2017-10-25T13:46:14.998Z,2.73
2017-10-25T13:48:41.728Z,2.20
2017-10-25T13:51:08.450Z,2.47
2017-10-25T13:53:35.144Z,2.63
2017-10-25T13:56:01.857Z,2.63
2017-10-25T13:58:28.558Z,2.60
2017-10-25T14:00:55.258Z,2.80
2017-10-25T14:03:21.996Z,2.87
2017-10-25T14:05:48.692Z,2.70
2017-10-25T14:08:15.382Z,2.77
2017-10-25T14:10:42.129Z,2.70
2017-10-25T14:13:08.849Z,2.53
2017-10-25T14:15:35.543Z,2.50
2017-10-25T14:18:02.269Z,2.37
2017-10-25T14:20:28.954Z,2.43
2017-10-25T14:22:55.654Z,3.23
2017-10-25T14:25:22.372Z,2.50
2017-10-25T14:27:54.897Z,2.60
2017-10-25T14:30:21.592Z,2.40
2017-10-25T14:32:48.353Z,2.43
2017-10-25T14:35:15.154Z,2.77
2017-10-25T14:37:41.871Z,2.53
2017-10-25T14:40:08.576Z,2.27
2017-10-25T14:42:35.269Z,2.17
2017-10-25T14:45:01.975Z,2.33
2017-10-25T14:47:28.683Z,2.20
2017-10-25T14:49:55.382Z,2.50
2017-10-25T14:52:22.070Z,3.23
2017-10-25T14:54:48.804Z,2.70
2017-10-25T14:57:15.499Z,2.73
2017-10-25T14:59:42.191Z,2.97
2017-10-25T15:02:08.918Z,3.47
2017-10-25T15:04:35.611Z,3.00
2017-10-25T15:07:02.314Z,3.23
2017-10-25T15:09:29.051Z,3.70
2017-10-25T15:11:55.746Z,2.97
2017-10-25T15:14:22.463Z,2.70
2017-10-25T15:16:49.194Z,3.17
2017-10-25T15:19:15.887Z,3.23
2017-10-25T15:21:42.575Z,2.80
2017-10-25T15:24:09.310Z,3.00
2017-10-25T15:26:36.023Z,2.40
2017-10-25T15:29:02.731Z,2.80
2017-10-25T15:31:29.441Z,2.47
2017-10-25T15:33:56.137Z,3.40
2017-10-25T15:36:22.826Z,2.97
2017-10-25T15:38:49.553Z,2.90
2017-10-25T15:41:16.475Z,2.87
2017-10-25T15:43:43.168Z,3.40
2017-10-25T15:46:09.923Z,3.13
2017-10-25T15:48:36.631Z,2.93
2017-10-25T15:51:03.323Z,2.40
2017-10-25T15:53:30.060Z,2.67
2017-10-25T15:55:56.750Z,2.57
2017-10-25T15:58:23.446Z,2.50
2017-10-25T16:00:50.195Z,3.43
2017-10-25T16:03:16.898Z,3.10
2017-10-25T16:05:43.600Z,2.83
2017-10-25T16:08:10.334Z,2.70
2017-10-25T16:10:37.034Z,2.73
2017-10-25T16:13:03.739Z,2.37
2017-10-25T16:15:30.463Z,2.90
2017-10-25T16:17:57.160Z,2.33
2017-10-25T16:20:23.862Z,3.50
2017-10-25T16:22:50.584Z,4.30
2017-10-25T16:25:17.279Z,3.50
2017-10-25T16:27:43.975Z,3.33
2017-10-25T16:30:10.739Z,3.17
2017-10-25T16:32:37.464Z,2.93
2017-10-25T16:35:04.166Z,3.00
2017-10-25T16:37:30.877Z,3.20
2017-10-25T16:39:57.578Z,2.97
2017-10-25T16:42:24.271Z,3.50
2017-10-25T16:44:50.989Z,3.17
2017-10-25T16:47:17.688Z,3.03
2017-10-25T16:49:44.385Z,3.27
2017-10-25T16:52:11.196Z,2.73
2017-10-25T16:54:37.911Z,2.77
2017-10-25T16:57:04.609Z,2.60
2017-10-25T16:59:31.350Z,2.53
2017-10-25T17:01:58.055Z,3.00
2017-10-25T17:04:24.763Z,3.37
2017-10-25T17:06:51.710Z,3.87
2017-10-25T17:09:18.434Z,3.73
2017-10-25T17:11:45.179Z,3.90
2017-10-25T17:14:11.927Z,4.63
2017-10-25T17:16:38.636Z,3.60
2017-10-25T17:19:05.358Z,3.87
2017-10-25T17:21:32.081Z,3.87
2017-10-25T17:23:58.791Z,4.27
2017-10-25T17:26:25.487Z,4.80
2017-10-25T17:28:52.235Z,4.60
2017-10-25T17:31:18.948Z,3.50
2017-10-25T17:33:45.645Z,3.97
2017-10-25T17:36:12.406Z,4.00
2017-10-25T17:38:39.115Z,4.67
2017-10-25T17:41:05.838Z,4.63
2017-10-25T17:43:32.572Z,4.77
2017-10-25T17:45:59.284Z,4.90
2017-10-25T17:48:25.983Z,4.30
2017-10-25T17:50:52.741Z,3.47
2017-10-25T17:53:19.440Z,4.53
2017-10-25T17:55:46.146Z,4.50
2017-10-25T17:58:12.888Z,4.67
2017-10-25T18:00:39.621Z,4.63
2017-10-25T18:03:06.323Z,5.30
2017-10-25T18:05:33.048Z,4.20
2017-10-25T18:07:59.746Z,5.07
2017-10-25T18:10:26.448Z,4.87
2017-10-25T18:12:53.166Z,4.87
2017-10-25T18:15:19.869Z,4.80
2017-10-25T18:17:46.580Z,4.70
2017-10-25T18:20:13.379Z,5.77
2017-10-25T18:22:40.085Z,6.27
2017-10-25T18:25:07.089Z,5.67
2017-10-25T18:27:33.985Z,5.70
2017-10-25T18:30:00.788Z,5.67
2017-10-25T18:32:28.106Z,5.70
2017-10-25T18:34:55.067Z,5.40
2017-10-25T18:37:22.188Z,4.93
2017-10-25T18:39:49.057Z,4.60
2017-10-25T18:42:15.791Z,5.47
2017-10-25T18:44:42.528Z,5.40
2017-10-25T18:47:09.239Z,4.63
2017-10-25T18:49:35.982Z,5.00
2017-10-25T18:52:02.676Z,5.53
2017-10-25T18:54:29.386Z,5.00
2017-10-25T18:56:56.102Z,5.00
2017-10-25T18:59:22.804Z,4.60
2017-10-25T19:01:49.520Z,3.97
2017-10-25T19:04:16.285Z,3.63
2017-10-25T19:06:43.002Z,4.87
2017-10-25T19:09:09.701Z,4.47
2017-10-25T19:11:36.465Z,3.77
2017-10-25T19:14:03.190Z,4.13
2017-10-25T19:16:29.902Z,4.00
2017-10-25T19:18:56.621Z,3.70
2017-10-25T19:21:23.310Z,4.50
2017-10-25T19:23:50.025Z,5.27
2017-10-25T19:26:16.749Z,3.90
2017-10-25T19:28:43.504Z,5.00
2017-10-25T19:31:10.244Z,4.67
2017-10-25T19:33:36.969Z,4.83
2017-10-25T19:36:03.684Z,4.87
2017-10-25T19:38:30.383Z,4.90
2017-10-25T19:40:57.142Z,4.60
2017-10-25T19:43:23.948Z,4.73
2017-10-25T19:45:50.695Z,4.60
2017-10-25T19:48:17.419Z,5.90
2017-10-25T19:50:44.116Z,5.00
2017-10-25T19:53:10.830Z,4.27
2017-10-25T19:55:37.572Z,4.80
2017-10-25T19:58:04.278Z,4.73
2017-10-25T20:00:31.002Z,5.03
2017-10-25T20:02:57.725Z,4.97
2017-10-25T20:05:24.450Z,4.60
2017-10-25T20:07:51.171Z,4.53
2017-10-25T20:10:17.890Z,5.77
2017-10-25T20:12:44.587Z,6.40
2017-10-25T20:15:11.294Z,4.83
2017-10-25T20:17:37.997Z,5.63
2017-10-25T20:20:04.700Z,4.87
2017-10-25T20:22:31.414Z,5.37
2017-10-25T20:24:58.864Z,5.33
2017-10-25T20:27:25.817Z,5.10
2017-10-25T20:29:52.530Z,5.00
2017-10-25T20:32:19.287Z,5.60
2017-10-25T20:34:46.011Z,4.90
2017-10-25T20:37:12.745Z,5.40
2017-10-25T20:39:39.518Z,5.73
2017-10-25T20:42:06.214Z,4.73
2017-10-25T20:44:33.039Z,4.80
2017-10-25T20:46:59.766Z,4.93
2017-10-25T20:49:26.570Z,4.57
2017-10-25T20:51:53.284Z,4.73
2017-10-25T20:54:20.034Z,5.10
2017-10-25T20:56:46.741Z,4.80
2017-10-25T20:59:13.440Z,4.70
2017-10-25T21:01:40.250Z,4.77
2017-10-25T21:04:06.942Z,4.60
2017-10-25T21:06:33.659Z,4.97
2017-10-25T21:09:00.398Z,4.67
2017-10-25T21:11:27.123Z,5.87
2017-10-25T21:13:53.847Z,4.90
2017-10-25T21:16:20.557Z,5.50
2017-10-25T21:18:47.275Z,6.07
2017-10-25T21:21:14.003Z,5.20
2017-10-25T21:23:40.712Z,5.97
2017-10-25T21:26:07.437Z,5.80
2017-10-25T21:28:34.125Z,6.50
2017-10-25T21:31:00.857Z,5.77
2017-10-25T21:33:27.566Z,6.73
2017-10-25T21:35:54.266Z,5.50
2017-10-25T21:38:20.986Z,6.13
2017-10-25T21:40:47.690Z,6.17
2017-10-25T21:43:14.379Z,5.60
2017-10-25T21:45:41.139Z,6.03
2017-10-25T21:48:07.846Z,6.00
2017-10-25T21:50:34.559Z,5.87
2017-10-25T21:53:01.284Z,6.47
2017-10-25T21:55:28.012Z,6.47
2017-10-25T21:57:54.711Z,6.10
2017-10-25T22:00:21.439Z,6.23
2017-10-25T22:02:48.147Z,4.93
2017-10-25T22:05:14.845Z,5.77
2017-10-25T22:07:41.606Z,5.50
2017-10-25T22:10:08.302Z,6.07
2017-10-25T22:12:35.010Z,5.27
2017-10-25T22:15:01.747Z,5.87
2017-10-25T22:17:28.447Z,6.97
2017-10-25T22:19:55.151Z,6.90
2017-10-25T22:22:21.887Z,6.50
2017-10-25T22:24:48.586Z,6.60
2017-10-25T22:27:15.331Z,6.80
2017-10-25T22:29:42.054Z,6.83
2017-10-25T22:32:08.752Z,6.30
2017-10-25T22:34:35.459Z,6.87
2017-10-25T22:37:02.187Z,6.10
2017-10-25T22:39:28.884Z,6.97
2017-10-25T22:41:55.571Z,6.20
2017-10-25T22:44:22.294Z,6.57
2017-10-25T22:46:48.996Z,6.10
2017-10-25T22:49:15.698Z,6.10
2017-10-25T22:51:42.451Z,6.70
2017-10-25T22:54:09.147Z,6.10
2017-10-25T22:56:35.821Z,6.20
2017-10-25T22:59:02.541Z,6.47
2017-10-25T23:01:29.236Z,6.70
2017-10-25T23:03:55.987Z,6.00
2017-10-25T23:06:22.717Z,5.80
2017-10-25T23:08:49.427Z,6.40
2017-10-25T23:11:16.152Z,6.50
2017-10-25T23:13:42.875Z,6.60
2017-10-25T23:16:09.567Z,6.63
2017-10-25T23:18:36.266Z,6.40
2017-10-25T23:21:03.013Z,5.90
2017-10-25T23:23:29.707Z,7.03
2017-10-25T23:25:56.407Z,6.60
2017-10-25T23:28:23.132Z,6.93
2017-10-25T23:30:49.823Z,6.77
2017-10-25T23:33:16.514Z,7.00
2017-10-25T23:35:43.261Z,6.77
2017-10-25T23:38:09.968Z,7.90
2017-10-25T23:40:36.667Z,7.30
2017-10-25T23:43:03.405Z,7.33
2017-10-25T23:45:30.097Z,6.90
2017-10-25T23:47:56.826Z,7.40
2017-10-25T23:50:23.557Z,7.73
2017-10-25T23:52:50.267Z,8.50
2017-10-25T23:55:16.967Z,6.60
2017-10-25T23:57:43.694Z,6.87
